Time;durP1;ratioP1;P1;durP2;ratioP2;P2;SDS_P1;SDS_P2;PMS_P1;PMS_P2;Temp;Humidity;BMP_temperature;BMP_pressure;BME280_temperature;BME280_humidity;BME280_pressure;Samples;Min_cycle;Max_cycle;Signal;HPM_P1;HPM_P2
2021/09/05 00:02:08;;;;;;;19.20;8.63;;;;;;;14.75;75.13;101963.59;5074102;28;20067;-40
2021/09/05 00:04:33;;;;;;;15.32;7.95;;;;;;;14.71;75.49;101979.38;5062358;28;20446;-39
2021/09/05 00:06:59;;;;;;;19.20;8.45;;;;;;;14.64;75.53;101973.00;5071165;28;20051;-41
2021/09/05 00:09:24;;;;;;;18.73;8.15;;;;;;;14.63;75.71;101975.88;5074624;28;20388;-40
2021/09/05 00:11:49;;;;;;;16.20;8.35;;;;;;;14.61;75.56;101976.09;5056577;28;20119;-40
2021/09/05 00:14:15;;;;;;;16.17;8.18;;;;;;;14.60;75.64;101963.53;5058401;28;20031;-40
2021/09/05 00:16:40;;;;;;;20.33;7.90;;;;;;;14.56;75.74;101978.50;5061344;28;20030;-39
2021/09/05 00:19:05;;;;;;;20.98;9.25;;;;;;;14.54;75.71;101977.81;5054248;28;20017;-40
2021/09/05 00:21:31;;;;;;;14.40;7.90;;;;;;;14.54;75.60;101977.81;5063955;28;20055;-40
2021/09/05 00:23:56;;;;;;;16.48;8.80;;;;;;;14.47;75.90;101983.06;5073521;28;20064;-39
2021/09/05 00:26:21;;;;;;;13.05;8.25;;;;;;;14.44;75.92;101978.00;5073683;28;20511;-39
2021/09/05 00:28:46;;;;;;;17.65;8.65;;;;;;;14.46;75.95;101981.41;5074391;28;20035;-39
2021/09/05 00:31:12;;;;;;;19.77;8.73;;;;;;;14.40;76.04;101978.53;5074030;28;20032;-39
2021/09/05 00:33:37;;;;;;;14.27;8.25;;;;;;;14.39;76.05;101979.59;5068037;28;20048;-39
2021/09/05 00:36:03;;;;;;;14.65;7.88;;;;;;;14.33;76.20;101977.59;5061737;28;20031;-38
2021/09/05 00:38:28;;;;;;;16.38;7.97;;;;;;;14.30;76.29;101977.94;5056211;28;20036;-40
2021/09/05 00:40:53;;;;;;;14.95;8.13;;;;;;;14.33;76.30;101974.88;5073887;28;20041;-39
2021/09/05 00:43:18;;;;;;;15.43;7.95;;;;;;;14.25;76.49;101971.19;5072948;28;20028;-40
2021/09/05 00:45:44;;;;;;;19.95;8.30;;;;;;;14.21;76.45;101971.72;5073330;28;20068;-39
2021/09/05 00:48:09;;;;;;;16.75;8.27;;;;;;;14.23;76.52;101964.28;5073902;28;20464;-39
2021/09/05 00:50:35;;;;;;;15.75;8.90;;;;;;;14.22;76.36;101974.28;5074013;28;20028;-39
2021/09/05 00:53:00;;;;;;;15.55;8.77;;;;;;;14.06;76.86;101971.66;5072778;28;20028;-39
2021/09/05 00:55:26;;;;;;;14.93;8.30;;;;;;;14.09;76.99;101979.44;5072810;28;20024;-40
2021/09/05 00:57:51;;;;;;;18.42;8.77;;;;;;;14.07;77.33;101965.22;5073436;28;20143;-39
2021/09/05 01:00:19;;;;;;;17.92;9.00;;;;;;;14.09;77.07;101979.44;5073741;28;20020;-39
2021/09/05 01:02:45;;;;;;;;;;;;;;;14.03;77.25;101972.00;5074318;28;20025;-39
2021/09/05 01:05:11;;;;;;;18.35;8.43;;;;;;;14.07;77.21;101972.50;5061143;28;19912;-40
2021/09/05 01:07:36;;;;;;;20.15;8.88;;;;;;;14.06;76.91;101974.38;5073342;28;20032;-39
2021/09/05 01:10:01;;;;;;;19.40;8.75;;;;;;;14.02;77.13;101973.03;5055136;28;20111;-39
2021/09/05 01:12:27;;;;;;;17.63;9.70;;;;;;;13.93;77.45;101984.91;5073301;28;20031;-40
2021/09/05 01:14:52;;;;;;;26.52;8.57;;;;;;;13.90;77.63;101979.84;5072680;28;20047;-40
2021/09/05 01:17:18;;;;;;;18.63;9.63;;;;;;;13.83;77.80;101983.25;5073231;28;20051;-39
2021/09/05 01:19:43;;;;;;;17.38;8.95;;;;;;;13.81;77.91;101985.28;5073270;28;20051;-39
2021/09/05 01:22:09;;;;;;;18.27;8.50;;;;;;;13.84;77.75;101987.63;5070422;28;20039;-40
2021/09/05 01:24:34;;;;;;;21.42;8.95;;;;;;;13.86;77.83;101986.63;5066143;28;20039;-39
2021/09/05 01:26:59;;;;;;;22.45;9.43;;;;;;;13.80;78.08;101986.31;5058926;28;20120;-40
2021/09/05 01:29:25;;;;;;;17.17;9.23;;;;;;;13.74;78.26;101981.59;5053234;28;20048;-40
2021/09/05 01:31:52;;;;;;;21.85;9.73;;;;;;;13.74;78.14;101992.41;5053100;28;20429;-40
2021/09/05 01:34:19;;;;;;;18.33;9.30;;;;;;;13.73;78.03;101988.03;5063515;28;20381;-39
2021/09/05 01:36:46;;;;;;;19.73;9.13;;;;;;;13.79;77.91;101984.63;5071743;28;20070;-40
2021/09/05 01:39:12;;;;;;;19.95;9.82;;;;;;;13.76;78.09;101995.78;5073059;28;20029;-39
2021/09/05 01:41:38;;;;;;;15.63;8.50;;;;;;;13.75;78.08;101983.28;5070965;28;20056;-39
2021/09/05 01:44:06;;;;;;;19.00;9.73;;;;;;;13.77;77.96;101991.22;5072015;28;20028;-39
2021/09/05 01:46:32;;;;;;;15.50;8.93;;;;;;;13.75;78.05;101988.69;5072617;28;20038;-39
2021/09/05 01:48:58;;;;;;;19.70;10.00;;;;;;;13.72;78.11;101988.22;5072551;28;20029;-38
2021/09/05 01:51:23;;;;;;;20.83;10.07;;;;;;;13.72;78.15;101991.75;5072915;28;20472;-39
2021/09/05 01:53:48;;;;;;;20.27;9.68;;;;;;;13.74;78.06;101992.41;5071514;28;20124;-40
2021/09/05 01:56:14;;;;;;;22.80;9.63;;;;;;;13.73;78.09;101995.31;5072243;28;20063;-40
2021/09/05 01:58:40;;;;;;;18.35;9.10;;;;;;;13.70;78.24;102001.91;5072729;28;20028;-40
2021/09/05 02:01:05;;;;;;;27.05;10.48;;;;;;;13.70;78.21;102003.78;5072388;28;20412;-40
2021/09/05 02:03:30;;;;;;;21.45;10.13;;;;;;;13.62;78.38;102001.94;5072004;28;20497;-38
2021/09/05 02:05:55;;;;;;;23.60;9.45;;;;;;;13.63;78.40;102006.31;5065229;28;20029;-38
2021/09/05 02:08:21;;;;;;;17.40;9.45;;;;;;;13.63;78.42;102005.47;5052450;28;20021;-39
2021/09/05 02:10:46;;;;;;;21.17;9.90;;;;;;;13.60;78.69;102001.25;5051861;28;20366;-38
2021/09/05 02:13:12;;;;;;;21.58;10.65;;;;;;;13.57;78.68;102005.16;5053112;28;20519;-39
2021/09/05 02:15:37;;;;;;;20.92;9.38;;;;;;;13.58;78.72;102008.69;5057612;28;20021;-39
2021/09/05 02:18:02;;;;;;;20.20;10.48;;;;;;;13.52;78.79;102010.25;5072139;28;20079;-39
2021/09/05 02:20:28;;;;;;;16.92;9.73;;;;;;;13.55;78.61;102009.06;5071950;28;20036;-40
2021/09/05 02:22:53;;;;;;;20.15;9.27;;;;;;;13.52;78.88;102020.22;5072073;28;20434;-40
2021/09/05 02:25:18;;;;;;;22.83;10.77;;;;;;;13.52;78.75;102020.22;5057016;28;20118;-40
2021/09/05 02:27:44;;;;;;;20.92;10.27;;;;;;;13.53;78.82;102027.31;5071747;28;20037;-39
2021/09/05 02:30:10;;;;;;;19.23;9.90;;;;;;;13.51;78.73;102013.97;5072371;28;20024;-39
2021/09/05 02:32:36;;;;;;;25.40;10.07;;;;;;;13.53;78.62;102016.50;5072634;28;20112;-40
2021/09/05 02:35:02;;;;;;;19.75;9.70;;;;;;;13.40;79.34;102017.03;5065130;28;20388;-39
2021/09/05 02:37:27;;;;;;;18.20;10.73;;;;;;;13.33;79.58;102021.44;5071229;28;20024;-38
2021/09/05 02:39:53;;;;;;;21.80;10.73;;;;;;;13.29;79.57;102023.63;5072372;28;20029;-39
2021/09/05 02:42:18;;;;;;;24.63;11.07;;;;;;;13.27;79.73;102022.97;5072589;28;20028;-40
2021/09/05 02:44:43;;;;;;;19.23;9.93;;;;;;;13.32;79.56;102015.19;5060065;28;20151;-39
2021/09/05 02:47:09;;;;;;;22.48;11.25;;;;;;;13.31;79.48;102010.78;5057040;28;20040;-39
2021/09/05 02:49:34;;;;;;;24.73;11.05;;;;;;;13.34;79.10;102007.75;5072401;28;20035;-38
2021/09/05 02:51:59;;;;;;;19.02;10.40;;;;;;;13.32;79.39;102012.50;5072451;28;20043;-39
2021/09/05 02:54:25;;;;;;;18.38;10.23;;;;;;;13.35;79.17;102012.16;5071728;28;20044;-39
2021/09/05 02:56:50;;;;;;;19.27;10.35;;;;;;;13.34;79.03;102020.41;5054040;28;20068;-39
2021/09/05 02:59:16;;;;;;;20.50;9.65;;;;;;;13.31;79.06;102013.50;5053684;28;20033;-38
2021/09/05 03:01:41;;;;;;;19.35;10.38;;;;;;;13.36;79.00;102016.53;5052841;28;20040;-38
2021/09/05 03:04:07;;;;;;;25.50;10.82;;;;;;;13.31;79.04;102008.09;5058620;28;20032;-39
2021/09/05 03:06:32;;;;;;;22.50;11.07;;;;;;;13.26;79.38;102009.59;5071813;28;20036;-39
2021/09/05 03:08:57;;;;;;;18.35;10.30;;;;;;;13.23;79.41;102015.34;5072189;28;20039;-41
2021/09/05 03:11:23;;;;;;;24.50;11.48;;;;;;;13.18;79.58;102013.97;5072611;28;20032;-39
2021/09/05 03:13:48;;;;;;;19.67;11.02;;;;;;;13.15;79.58;102010.78;5069253;28;20145;-39
2021/09/05 03:16:14;;;;;;;22.85;10.80;;;;;;;13.17;79.54;102000.66;5052462;28;20040;-39
2021/09/05 03:18:39;;;;;;;26.42;11.88;;;;;;;13.11;79.73;102009.41;5068411;28;20035;-40
2021/09/05 03:21:05;;;;;;;21.58;11.13;;;;;;;13.11;79.80;101993.19;5054466;28;20122;-39
2021/09/05 03:23:30;;;;;;;25.85;11.40;;;;;;;13.09;79.73;101993.41;5073227;28;20033;-38
2021/09/05 03:25:55;;;;;;;23.00;10.70;;;;;;;13.06;79.80;101993.75;5076171;28;20035;-38
2021/09/05 03:28:21;;;;;;;22.75;11.57;;;;;;;12.98;79.99;102001.84;5075712;28;20090;-40
2021/09/05 03:30:46;;;;;;;20.42;10.88;;;;;;;12.99;80.00;102002.69;5076292;28;20081;-38
2021/09/05 03:33:11;;;;;;;27.15;12.10;;;;;;;12.99;79.92;102003.53;5074244;28;20079;-38
2021/09/05 03:35:37;;;;;;;21.88;11.07;;;;;;;13.04;79.76;102006.56;5075097;28;20086;-38
2021/09/05 03:38:02;;;;;;;25.23;10.98;;;;;;;12.99;79.94;102008.94;5075434;28;20113;-38
2021/09/05 03:40:27;;;;;;;19.42;9.70;;;;;;;12.98;79.96;101999.16;5075623;28;20051;-39
2021/09/05 03:42:53;;;;;;;26.55;11.75;;;;;;;12.93;80.18;102004.22;5045886;28;20032;-39
2021/09/05 03:45:18;;;;;;;23.98;12.52;;;;;;;12.97;79.91;102000.16;5072228;28;20116;-39
2021/09/05 03:47:43;;;;;;;25.92;11.30;;;;;;;12.95;79.92;101997.63;5063573;28;20032;-38
2021/09/05 03:50:09;;;;;;;21.17;11.00;;;;;;;12.93;80.10;101994.25;5076699;28;20489;-39
2021/09/05 03:52:34;;;;;;;29.40;11.40;;;;;;;12.83;80.37;101993.56;5076981;28;20037;-39
2021/09/05 03:55:00;;;;;;;26.15;11.73;;;;;;;12.87;80.22;102002.16;5075787;28;20127;-39
2021/09/05 03:57:26;;;;;;;24.20;11.32;;;;;;;12.89;80.15;102006.38;5062275;28;20037;-39
2021/09/05 03:59:51;;;;;;;25.33;11.32;;;;;;;12.83;80.36;101995.44;5076764;28;20082;-39
2021/09/05 04:02:16;;;;;;;26.23;13.05;;;;;;;12.81;80.25;102002.84;5075149;28;20082;-39
2021/09/05 04:04:42;;;;;;;24.65;11.65;;;;;;;12.80;80.44;102002.00;5068008;28;20404;-39
2021/09/05 04:07:10;;;;;;;20.42;11.00;;;;;;;12.84;80.16;102000.66;5057644;28;20036;-40
2021/09/05 04:12:20;;;;;;;25.90;11.95;;;;;;;12.74;80.33;102005.38;5076431;28;20415;-38
2021/09/05 04:14:45;;;;;;;21.95;12.20;;;;;;;12.75;80.38;102007.06;5075627;28;20036;-38
2021/09/05 04:17:10;;;;;;;23.13;11.82;;;;;;;12.75;80.28;102004.38;5075502;28;20038;-39
2021/09/05 04:19:36;;;;;;;25.15;12.52;;;;;;;12.78;80.22;102001.34;5075860;28;20032;-39
2021/09/05 04:22:05;;;;;;;28.58;12.48;;;;;;;12.79;80.24;102005.72;5075464;28;20017;-39
2021/09/05 04:24:30;;;;;;;23.63;12.57;;;;;;;12.75;80.34;102001.69;5075214;28;20037;-39
2021/09/05 04:26:55;;;;;;;28.58;13.55;;;;;;;12.71;80.48;102001.13;5073220;28;20029;-38
2021/09/05 04:29:21;;;;;;;25.13;11.13;;;;;;;12.70;80.48;101993.22;5073152;28;20111;-39
2021/09/05 04:31:47;;;;;;;29.23;12.00;;;;;;;12.69;80.70;101996.91;5072710;28;20506;-39
2021/09/05 04:34:13;;;;;;;26.48;11.88;;;;;;;12.67;80.48;102001.66;5072377;28;20037;-38
2021/09/05 04:36:38;;;;;;;26.17;12.35;;;;;;;12.63;80.75;102005.69;5072775;28;20040;-39
2021/09/05 04:39:05;;;;;;;21.67;11.20;;;;;;;12.65;80.55;102009.09;5073127;28;20025;-38
2021/09/05 04:41:30;;;;;;;20.83;10.82;;;;;;;12.64;80.34;102005.53;5072437;28;20044;-38
2021/09/05 04:43:56;;;;;;;28.13;12.82;;;;;;;12.63;80.54;102005.69;5071959;28;20039;-39
2021/09/05 04:46:21;;;;;;;22.50;12.63;;;;;;;12.61;80.34;102005.00;5072569;28;20064;-37
2021/09/05 04:48:46;;;;;;;24.98;11.00;;;;;;;12.65;80.47;102011.78;5072505;28;20033;-38
2021/09/05 04:51:11;;;;;;;24.90;11.90;;;;;;;12.64;80.27;102007.41;5072252;28;20040;-38
2021/09/05 04:53:37;;;;;;;27.30;12.57;;;;;;;12.62;80.42;102009.44;5054324;28;20032;-39
2021/09/05 04:56:02;;;;;;;24.73;12.63;;;;;;;12.55;80.64;102009.22;5071948;28;20077;-39
2021/09/05 04:58:28;;;;;;;19.63;10.98;;;;;;;12.58;80.49;102011.59;5071128;28;20656;-38
2021/09/05 05:00:53;;;;;;;30.30;13.10;;;;;;;12.62;80.33;102012.13;5071154;28;20161;-40
2021/09/05 05:03:18;;;;;;;21.00;11.50;;;;;;;12.60;80.48;102019.53;5070783;28;20028;-38
2021/09/05 05:05:44;;;;;;;19.75;12.10;;;;;;;12.57;80.62;102014.47;5068354;28;20077;-38
2021/09/05 05:08:09;;;;;;;29.33;12.70;;;;;;;12.59;80.45;102018.72;5050834;28;20041;-38
2021/09/05 05:10:35;;;;;;;23.67;11.70;;;;;;;12.54;80.70;102025.63;5052038;28;20507;-39
2021/09/05 05:13:00;;;;;;;28.35;12.52;;;;;;;12.54;80.63;102029.16;5070713;28;20453;-40
2021/09/05 05:15:26;;;;;;;23.88;11.65;;;;;;;12.59;80.50;102029.50;5064703;28;20451;-39
2021/09/05 05:17:51;;;;;;;26.10;11.75;;;;;;;12.62;80.27;102036.44;5070374;28;20507;-39
2021/09/05 05:20:17;;;;;;;24.92;13.10;;;;;;;12.61;80.25;102037.44;5070455;28;20071;-39
2021/09/05 05:22:43;;;;;;;24.23;12.00;;;;;;;12.63;80.30;102038.94;5069844;28;20390;-38
2021/09/05 05:25:09;;;;;;;23.23;12.27;;;;;;;12.66;80.16;102035.06;5069322;28;20043;-39
2021/09/05 05:27:34;;;;;;;27.05;11.88;;;;;;;12.68;80.00;102046.56;5070368;28;20055;-39
2021/09/05 05:29:59;;;;;;;23.83;11.40;;;;;;;12.71;80.04;102046.22;5070343;28;20028;-38
2021/09/05 05:32:25;;;;;;;18.90;10.95;;;;;;;12.76;80.07;102046.56;5069675;28;20467;-39
2021/09/05 05:34:50;;;;;;;26.38;12.02;;;;;;;12.91;79.75;102052.16;5068288;28;20142;-39
2021/09/05 05:37:15;;;;;;;24.98;11.65;;;;;;;13.25;78.67;102052.00;5070162;28;20027;-38
2021/09/05 05:39:41;;;;;;;22.63;11.15;;;;;;;13.83;75.92;102052.78;5069924;28;20032;-38
2021/09/05 05:42:06;;;;;;;21.33;11.00;;;;;;;14.50;73.73;102065.84;5069573;28;20029;-39
2021/09/05 05:44:32;;;;;;;21.45;10.77;;;;;;;15.08;71.39;102058.19;5057103;28;20064;-38
2021/09/05 05:46:57;;;;;;;18.88;9.38;;;;;;;15.65;69.86;102054.94;5052813;28;20786;-38
2021/09/05 05:49:23;;;;;;;17.02;9.48;;;;;;;16.06;67.77;102059.09;5069461;28;20318;-39
2021/09/05 05:51:48;;;;;;;16.85;9.52;;;;;;;16.44;66.06;102063.34;5069385;28;20032;-37
2021/09/05 05:54:15;;;;;;;18.38;9.38;;;;;;;16.85;64.61;102065.50;5066022;28;20399;-40
2021/09/05 05:56:42;;;;;;;16.63;9.73;;;;;;;17.18;63.69;102061.41;5063668;28;20365;-39
2021/09/05 05:59:07;;;;;;;18.90;9.80;;;;;;;17.38;62.86;102065.16;5052007;28;20111;-39
2021/09/05 06:01:33;;;;;;;15.82;8.93;;;;;;;17.80;61.69;102070.69;5065131;28;20107;-39
2021/09/05 06:03:58;;;;;;;15.65;9.07;;;;;;;18.17;60.19;102067.56;5067876;28;20383;-38
2021/09/05 06:06:23;;;;;;;17.08;9.48;;;;;;;18.27;59.85;102066.31;5065303;28;20036;-39
2021/09/05 06:08:49;;;;;;;21.70;10.20;;;;;;;18.46;59.00;102081.06;5052628;28;20033;-39
2021/09/05 06:11:14;;;;;;;15.82;9.05;;;;;;;18.39;59.02;102067.44;5066058;28;20082;-40
2021/09/05 06:13:39;;;;;;;19.35;9.82;;;;;;;17.90;60.19;102071.16;5065233;28;20443;-39
2021/09/05 06:16:05;;;;;;;20.15;9.93;;;;;;;17.28;62.06;102072.81;5061008;28;20553;-39
2021/09/05 06:18:30;;;;;;;21.77;10.77;;;;;;;16.59;64.28;102073.34;5067554;28;20421;-39
2021/09/05 06:20:55;;;;;;;18.08;9.43;;;;;;;16.12;66.42;102074.66;5065120;28;20119;-39
2021/09/05 06:23:21;;;;;;;18.75;10.18;;;;;;;15.74;67.64;102077.44;5068187;28;20031;-40
2021/09/05 06:25:46;;;;;;;19.67;10.13;;;;;;;15.47;68.65;102076.16;5051315;28;20032;-38
2021/09/05 06:28:12;;;;;;;17.13;9.63;;;;;;;15.25;69.61;102077.91;5060128;28;20134;-39
2021/09/05 06:30:37;;;;;;;23.42;10.85;;;;;;;15.07;70.30;102073.63;5063236;28;20384;-39
2021/09/05 06:33:02;;;;;;;19.98;10.32;;;;;;;14.96;70.98;102079.47;5066795;28;20089;-40
2021/09/05 06:35:29;;;;;;;16.30;9.60;;;;;;;14.90;71.67;102082.88;5067154;28;20027;-37
2021/09/05 06:37:54;;;;;;;21.48;10.07;;;;;;;14.84;71.75;102091.75;5051266;28;20032;-38
2021/09/05 06:40:21;;;;;;;21.98;9.82;;;;;;;14.89;71.74;102083.94;5068887;28;20044;-38
2021/09/05 06:42:46;;;;;;;20.35;9.75;;;;;;;15.12;71.42;102087.47;5067151;28;20029;-39
2021/09/05 06:45:11;;;;;;;18.15;10.38;;;;;;;15.98;69.00;102096.19;5067392;28;20787;-39
2021/09/05 06:47:37;;;;;;;17.70;9.43;;;;;;;17.00;64.99;102094.50;5064728;28;20117;-39
2021/09/05 06:50:02;;;;;;;17.85;8.98;;;;;;;18.11;61.60;102106.50;5065570;28;20039;-40
2021/09/05 06:52:28;;;;;;;13.30;8.10;;;;;;;19.34;57.94;102101.03;5067822;28;20113;-38
2021/09/05 06:54:53;;;;;;;14.35;7.85;;;;;;;20.10;56.42;102102.44;5063837;28;20048;-40
2021/09/05 06:57:18;;;;;;;18.80;9.18;;;;;;;20.91;52.88;102109.25;5066511;28;20111;-39
2021/09/05 06:59:44;;;;;;;16.33;8.82;;;;;;;21.28;52.33;102107.50;5068972;28;20036;-39
2021/09/05 07:02:09;;;;;;;15.38;8.80;;;;;;;22.08;50.25;102113.09;5068003;28;20025;-39
2021/09/05 07:04:36;;;;;;;16.13;8.40;;;;;;;22.38;48.84;102115.13;5067614;28;20025;-38
2021/09/05 07:07:02;;;;;;;15.88;8.93;;;;;;;22.18;49.24;102106.25;5069104;28;20269;-38
2021/09/05 07:09:27;;;;;;;17.50;9.50;;;;;;;21.96;50.14;102122.31;5068556;28;20431;-39
2021/09/05 07:11:52;;;;;;;13.70;8.90;;;;;;;22.31;49.19;102120.69;5067443;28;21470;-39
2021/09/05 07:14:18;;;;;;;12.75;7.78;;;;;;;22.18;49.55;102111.75;5068073;28;20036;-38
2021/09/05 07:16:43;;;;;;;13.57;8.25;;;;;;;22.75;48.48;102120.56;5068078;28;20032;-39
2021/09/05 07:19:08;;;;;;;16.00;8.82;;;;;;;22.73;48.11;102115.28;5065767;28;20511;-39
2021/09/05 07:21:34;;;;;;;19.63;9.52;;;;;;;22.67;47.96;102118.09;5067430;28;20177;-40
2021/09/05 07:23:59;;;;;;;18.20;8.70;;;;;;;23.13;48.11;102122.13;5067682;28;20059;-40
2021/09/05 07:26:24;;;;;;;16.00;8.60;;;;;;;23.63;46.38;102124.47;5065970;28;20468;-39
2021/09/05 07:28:50;;;;;;;15.35;8.38;;;;;;;23.60;46.27;102116.72;5068657;28;20461;-39
2021/09/05 07:31:15;;;;;;;13.90;7.88;;;;;;;23.56;47.05;102115.50;5069595;28;20120;-40
2021/09/05 07:33:40;;;;;;;14.10;8.98;;;;;;;24.19;45.30;102113.94;5069837;28;20052;-41
2021/09/05 07:36:07;;;;;;;12.38;8.75;;;;;;;24.43;44.42;102110.03;5070176;28;20020;-40
2021/09/05 07:38:32;;;;;;;15.32;8.52;;;;;;;24.30;45.19;102113.06;5073749;28;20025;-40
2021/09/05 07:40:57;;;;;;;17.50;9.13;;;;;;;24.91;43.82;102116.25;5075070;28;20056;-41
2021/09/05 07:43:23;;;;;;;14.43;8.30;;;;;;;25.03;43.43;102119.75;5073513;28;20021;-41
2021/09/05 07:45:48;;;;;;;14.63;8.73;;;;;;;25.23;43.52;102129.53;5074744;28;20064;-39
2021/09/05 07:48:14;;;;;;;13.32;8.65;;;;;;;25.29;42.65;102131.28;5075116;28;20028;-40
2021/09/05 07:50:39;;;;;;;15.15;8.65;;;;;;;25.07;43.64;102140.22;5074527;28;20512;-39
2021/09/05 07:53:04;;;;;;;12.70;9.35;;;;;;;25.09;43.70;102139.97;5073006;28;20548;-40
2021/09/05 07:55:30;;;;;;;15.95;8.82;;;;;;;25.59;42.35;102141.94;5073128;28;20032;-40
2021/09/05 07:57:55;;;;;;;15.63;8.73;;;;;;;25.88;41.80;102152.91;5074602;28;20028;-39
2021/09/05 08:00:20;;;;;;;18.25;8.93;;;;;;;25.77;42.29;102147.19;5074686;28;20536;-40
2021/09/05 08:02:46;;;;;;;16.98;8.77;;;;;;;25.84;41.76;102142.38;5074610;28;20388;-40
2021/09/05 08:05:11;;;;;;;15.27;8.10;;;;;;;26.41;41.12;102144.00;5056387;28;20128;-40
2021/09/05 08:07:36;;;;;;;13.27;7.88;;;;;;;26.93;39.80;102154.56;5054414;28;20052;-40
2021/09/05 08:10:06;;;;;;;14.45;8.73;;;;;;;26.82;39.30;102158.31;5053244;28;20104;-40
2021/09/05 08:12:31;;;;;;;13.82;8.43;;;;;;;26.95;40.29;102143.25;5054188;28;20064;-40
2021/09/05 08:14:56;;;;;;;12.13;8.35;;;;;;;27.25;39.19;102148.28;5036616;28;20076;-39
2021/09/05 08:17:22;;;;;;;14.30;8.57;;;;;;;27.02;39.90;102145.81;5055726;28;20025;-39
2021/09/05 08:19:50;;;;;;;12.27;8.48;;;;;;;26.99;39.83;102157.38;5054278;28;20104;-40
2021/09/05 08:22:16;;;;;;;15.32;9.05;;;;;;;27.13;39.97;102153.09;5054105;28;20081;-41
2021/09/05 08:24:41;;;;;;;13.02;8.15;;;;;;;27.33;39.64;102153.34;5055212;28;20041;-39
2021/09/05 08:27:06;;;;;;;13.82;8.45;;;;;;;27.51;38.96;102154.00;5054075;28;20025;-40
2021/09/05 08:29:32;;;;;;;16.92;8.75;;;;;;;27.59;39.13;102161.81;5054222;28;20025;-40
2021/09/05 08:31:57;;;;;;;15.50;8.90;;;;;;;28.01;38.09;102158.28;5054248;28;20051;-40
2021/09/05 08:34:22;;;;;;;13.10;9.52;;;;;;;27.72;38.12;102155.00;5055523;28;20545;-40
2021/09/05 08:36:48;;;;;;;15.32;9.73;;;;;;;26.68;39.82;102160.66;5054066;28;20540;-40
2021/09/05 08:39:13;;;;;;;15.73;8.40;;;;;;;27.17;39.30;102170.84;5054070;28;20028;-40
2021/09/05 08:41:38;;;;;;;15.63;9.40;;;;;;;26.98;39.60;102166.75;5053648;28;20053;-40
2021/09/05 08:44:04;;;;;;;15.88;9.05;;;;;;;27.03;39.59;102166.81;5037366;28;20092;-40
2021/09/05 08:46:29;;;;;;;17.17;9.10;;;;;;;27.26;39.75;102169.28;5053812;28;20127;-40
2021/09/05 08:48:55;;;;;;;12.38;8.05;;;;;;;27.39;38.84;102172.72;5053942;28;20044;-39
2021/09/05 08:51:20;;;;;;;16.00;8.90;;;;;;;27.50;38.02;102174.47;5054039;28;20060;-40
2021/09/05 08:53:45;;;;;;;11.48;7.68;;;;;;;27.81;38.87;102172.81;5055256;28;20082;-41
2021/09/05 08:56:11;;;;;;;14.77;8.60;;;;;;;27.74;38.28;102174.94;5053705;28;20035;-39
2021/09/05 08:58:36;;;;;;;13.57;9.43;;;;;;;27.57;37.67;102178.69;5053877;28;20028;-40
2021/09/05 09:01:25;;;;;;;16.10;8.52;;;;;;;27.10;38.92;102170.22;5053740;28;20021;-40
2021/09/05 09:04:03;;;;;;;14.05;8.43;;;;;;;27.32;38.23;102179.28;5053882;28;20032;-39
2021/09/05 09:06:36;;;;;;;15.45;8.40;;;;;;;27.34;38.22;102167.97;5054074;28;20061;-39
2021/09/05 09:09:03;;;;;;;13.05;8.23;;;;;;;27.54;37.47;102170.06;5053714;28;20025;-40
2021/09/05 09:11:52;;;;;;;11.07;7.30;;;;;;;27.22;38.82;102170.91;5053719;28;20029;-40
2021/09/05 09:14:18;;;;;;;14.60;7.88;;;;;;;27.38;38.77;102165.50;5069761;28;20030;-40
2021/09/05 09:16:44;;;;;;;14.47;7.27;;;;;;;27.45;39.04;102161.44;5072837;28;20040;-40
2021/09/05 09:19:22;;;;;;;11.43;7.50;;;;;;;27.54;38.07;102170.06;5072383;28;20283;-40
2021/09/05 09:21:47;;;;;;;12.25;8.00;;;;;;;27.20;38.41;102173.13;5072050;28;20025;-39
2021/09/05 09:24:19;;;;;;;11.48;7.90;;;;;;;26.92;39.32;102163.94;5067663;28;20048;-40
2021/09/05 09:27:03;;;;;;;18.30;7.82;;;;;;;26.89;39.67;102163.66;5069114;28;20097;-40
2021/09/05 09:29:29;;;;;;;12.57;7.80;;;;;;;27.32;39.15;102159.94;5072219;28;20427;-40
2021/09/05 09:32:05;;;;;;;12.35;7.25;;;;;;;27.15;39.58;102161.97;5072456;28;20059;-41
2021/09/05 09:34:41;;;;;;;15.60;7.95;;;;;;;27.09;38.32;102163.00;5071745;28;20078;-40
2021/09/05 09:37:15;;;;;;;12.75;7.65;;;;;;;26.75;38.65;102168.72;5072462;28;20477;-42
2021/09/05 09:39:58;;;;;;;12.25;6.93;;;;;;;26.99;39.11;102157.38;5072884;28;20035;-42
2021/09/05 09:42:39;;;;;;;10.85;6.82;;;;;;;26.92;38.79;102163.94;5072904;28;20024;-39
2021/09/05 09:45:18;;;;;;;14.20;7.03;;;;;;;26.91;38.69;102162.28;5056886;28;20073;-40
2021/09/05 09:47:44;;;;;;;13.23;6.93;;;;;;;26.71;38.93;102159.28;5071023;28;20495;-40
2021/09/05 09:50:11;;;;;;;13.73;7.25;;;;;;;26.67;38.80;102160.88;5071078;28;20041;-40
2021/09/05 09:52:36;;;;;;;12.93;7.35;;;;;;;26.08;38.67;102163.41;5072170;28;20029;-38
2021/09/05 09:55:02;;;;;;;13.32;6.95;;;;;;;25.62;40.81;102171.81;5071560;28;20050;-39
2021/09/05 09:57:28;;;;;;;11.13;7.35;;;;;;;25.34;41.06;102167.19;5072187;28;20533;-41
2021/09/05 09:59:53;;;;;;;11.50;7.03;;;;;;;24.58;43.26;102164.59;5072248;28;20028;-40
2021/09/05 10:02:19;;;;;;;12.45;7.43;;;;;;;23.95;44.91;102159.91;5071997;28;20031;-41
2021/09/05 10:04:49;;;;;;;14.40;7.85;;;;;;;23.33;45.78;102165.75;5049325;28;20025;-40
2021/09/05 10:07:16;;;;;;;19.58;8.07;;;;;;;22.84;48.36;102167.72;5051876;28;20033;-40
2021/09/05 10:09:41;;;;;;;;;;;;;;;22.40;48.56;102159.59;5069984;28;20036;-39
2021/09/05 10:12:08;;;;;;;15.43;7.00;;;;;;;22.29;48.99;102174.09;5071968;28;19946;-40
2021/09/05 10:14:33;;;;;;;11.45;6.90;;;;;;;22.04;48.36;102161.25;5070662;28;20662;-41
2021/09/05 10:16:58;;;;;;;14.57;7.95;;;;;;;21.83;51.16;102158.94;5048401;28;20029;-40
2021/09/05 10:19:24;;;;;;;17.98;8.07;;;;;;;21.81;51.35;102163.78;5035625;28;20195;-41
2021/09/05 10:21:49;;;;;;;15.80;7.72;;;;;;;21.87;51.01;102166.44;5072311;28;20360;-38
2021/09/05 10:24:16;;;;;;;15.82;7.38;;;;;;;22.00;50.57;102162.75;5054830;28;20040;-40
2021/09/05 10:27:02;;;;;;;13.27;7.30;;;;;;;21.92;50.31;102168.53;5053691;28;20043;-39
2021/09/05 10:29:28;;;;;;;17.13;7.07;;;;;;;21.90;51.43;102165.16;5035288;28;20484;-39
2021/09/05 10:31:53;;;;;;;13.45;7.65;;;;;;;21.98;51.42;102167.59;5068282;28;20028;-41
2021/09/05 10:34:37;;;;;;;17.02;7.90;;;;;;;21.94;51.16;102177.38;5071014;28;20035;-41
2021/09/05 10:37:13;;;;;;;16.98;8.23;;;;;;;21.97;50.22;102162.38;5066937;28;20040;-40
2021/09/05 10:40:10;;;;;;;13.88;6.95;;;;;;;21.86;50.69;102163.94;5055111;28;20131;-40
2021/09/05 10:42:56;;;;;;;19.08;7.55;;;;;;;21.73;50.97;102156.69;5054303;28;20045;-40
2021/09/05 10:45:22;;;;;;;16.30;7.50;;;;;;;21.91;50.30;102164.13;5071356;28;20144;-40
2021/09/05 10:47:48;;;;;;;13.77;7.10;;;;;;;21.93;50.59;102156.47;5071892;28;20032;-40
2021/09/05 10:50:33;;;;;;;15.07;6.80;;;;;;;21.96;50.27;102158.78;5071809;28;20063;-40
2021/09/05 10:53:16;;;;;;;11.93;6.82;;;;;;;22.04;49.34;102158.50;5071319;28;20027;-40
2021/09/05 10:56:04;;;;;;;14.63;7.20;;;;;;;21.87;48.68;102162.88;5070409;28;20044;-40
2021/09/05 10:58:47;;;;;;;14.48;7.10;;;;;;;21.87;48.19;102151.91;5071409;28;20029;-40
2021/09/05 11:01:15;;;;;;;16.95;6.85;;;;;;;21.92;48.29;102158.38;5066148;28;20131;-40
2021/09/05 11:04:13;;;;;;;14.82;7.22;;;;;;;21.92;50.38;102154.81;5065302;28;20071;-40
2021/09/05 11:06:58;;;;;;;15.45;7.07;;;;;;;21.90;48.91;102151.47;5021698;28;20379;-41
2021/09/05 11:09:23;;;;;;;13.52;6.95;;;;;;;22.33;48.06;102145.16;5052488;28;20017;-40
2021/09/05 11:12:14;;;;;;;13.38;7.03;;;;;;;23.44;45.39;102152.06;5068976;28;20040;-38
2021/09/05 11:17:07;;;;;;;10.98;6.50;;;;;;;25.02;40.79;102159.41;5057740;28;20055;-39
2021/09/05 11:19:42;;;;;;;13.25;6.60;;;;;;;25.59;40.10;102151.09;5065183;28;20476;-39